Analomink, Pennsylvania
Current Conditions -  °F | °C
As of 11:37 PM on Wednesday 22 Oct 2014 (Local Time) from KMPO Reporting Station
Light Rain Light Rain  
Wind Chill: 38°   Ceiling: 1100
Heat Index: 46°   Visibility: 10mi
Dew Point: 42°   Wind: 21mph
Humidity: 86%   Direction: 340°NNW
Pressure: 29.83"   Gusts: 36mph
Location:  41.05°N, 75.22°W
Report Text: KMPO 230337Z AUTO 34018G31KT 10SM -RA BKN011 OVC015 08/06 A2983 RMK AO2 PK WND 33031/0336 CIG 008V012 T00780056 TSNO PNO $
Loading
Personal Weather Stations






























Interactive Weather Map
Tropical Storm Tracking
New forecast layout! Learn more

10-Day Weather Forecast

Advertisements
Track Severe Weather on mobile